createdAt,value
2023-02-24T00:02:31.228Z,94475.22
2023-02-24T00:05:44.390Z,94481.81
2023-02-24T00:08:53.519Z,94469.66
2023-02-24T00:12:05.129Z,94462.72
2023-02-24T00:15:15.310Z,94467.63
2023-02-24T00:18:23.671Z,94467.78
2023-02-24T00:21:32.132Z,94472.53
2023-02-24T00:24:40.373Z,94458.53
2023-02-24T00:27:48.639Z,94458.03
2023-02-24T00:30:58.369Z,94453.84
2023-02-24T00:34:07.657Z,94452.22
2023-02-24T00:37:16.340Z,94443.78
2023-02-24T00:40:26.767Z,94447.94
2023-02-24T00:43:37.111Z,94445.53
2023-02-24T00:46:48.054Z,94442.63
2023-02-24T00:49:56.636Z,94444.47
2023-02-24T00:53:04.883Z,94449.88
2023-02-24T00:56:13.628Z,94444.63
2023-02-24T00:59:23.978Z,94441.66
2023-02-24T01:02:33.625Z,94448.91
2023-02-24T01:05:41.816Z,94434.25
2023-02-24T01:08:50.897Z,94437.69
2023-02-24T01:12:17.554Z,94431.09
2023-02-24T01:15:26.384Z,94429.06
2023-02-24T01:18:36.602Z,94422.78
2023-02-24T01:21:46.152Z,94416.38
2023-02-24T01:24:54.462Z,94418.84
2023-02-24T01:28:02.855Z,94404.56
2023-02-24T01:31:17.665Z,94411.66
2023-02-24T01:34:29.009Z,94401.16
2023-02-24T01:37:40.098Z,94407.22
2023-02-24T01:40:58.342Z,94400.84
2023-02-24T01:44:10.047Z,94393.34
2023-02-24T01:47:21.583Z,94389.38
2023-02-24T01:50:33.042Z,94387.59
2023-02-24T01:53:41.373Z,94388.09
2023-02-24T01:56:52.356Z,94379.69
2023-02-24T02:00:25.589Z,94375.06
2023-02-24T02:03:38.969Z,94378.75
2023-02-24T02:06:49.749Z,94378.63
2023-02-24T02:14:52.398Z,94361.91
2023-02-24T02:18:10.421Z,94355.13
2023-02-24T02:21:56.301Z,94353.31
2023-02-24T02:25:16.553Z,94364.75
2023-02-24T02:28:59.002Z,94359.28
2023-02-24T02:32:43.954Z,94362.09
2023-02-24T02:36:03.262Z,94364.91
2023-02-24T02:39:23.895Z,94357.69
2023-02-24T02:42:43.920Z,94363.25
2023-02-24T02:46:03.662Z,94364.56
2023-02-24T02:49:20.787Z,94362.91
2023-02-24T02:52:42.288Z,94367.44
2023-02-24T02:55:59.236Z,94365.47
2023-02-24T02:59:12.769Z,94358.91
2023-02-24T03:02:28.405Z,94354.28
2023-02-24T03:05:46.984Z,94355.78
2023-02-24T03:09:11.342Z,94354.81
2023-02-24T03:12:24.382Z,94356.28
2023-02-24T03:15:35.271Z,94352.69
2023-02-24T03:18:53.045Z,94354.03
2023-02-24T03:22:12.236Z,94356.47
2023-02-24T03:25:30.200Z,94350.56
2023-02-24T03:28:46.445Z,94351.72
2023-02-24T03:32:05.483Z,94356.97
2023-02-24T03:35:21.812Z,94354.34
2023-02-24T03:38:34.052Z,94348.78
2023-02-24T03:41:56.198Z,94351.38
2023-02-24T03:45:07.812Z,94352.16
2023-02-24T03:48:17.345Z,94355.63
2023-02-24T03:51:27.670Z,94344.72
2023-02-24T03:55:00.154Z,94345.91
2023-02-24T03:58:22.996Z,94340.50
2023-02-24T04:01:43.041Z,94340.53
2023-02-24T04:05:00.532Z,94333.66
2023-02-24T04:08:20.167Z,94340.56
2023-02-24T04:11:38.997Z,94333.34
2023-02-24T04:14:58.247Z,94331.72
2023-02-24T04:18:16.655Z,94320.56
2023-02-24T04:21:31.286Z,94318.63
2023-02-24T04:24:42.770Z,94314.19
2023-02-24T04:27:53.163Z,94310.72
2023-02-24T04:31:11.189Z,94301.56
2023-02-24T04:34:21.427Z,94294.97
2023-02-24T04:37:33.858Z,94299.25
2023-02-24T04:40:43.615Z,94293.19
2023-02-24T04:43:52.335Z,94294.66
2023-02-24T04:47:01.946Z,94283.50
2023-02-24T04:50:12.280Z,94288.59
2023-02-24T04:53:26.873Z,94282.84
2023-02-24T04:56:35.609Z,94280.22
2023-02-24T04:59:44.250Z,94279.06
2023-02-24T05:02:57.385Z,94275.44
2023-02-24T05:06:08.629Z,94272.25
2023-02-24T05:09:19.045Z,94276.59
2023-02-24T05:17:08.647Z,94255.78
2023-02-24T05:20:36.782Z,94246.78
2023-02-24T05:23:47.654Z,94250.72
2023-02-24T05:26:59.448Z,94239.72
2023-02-24T05:30:09.725Z,94238.22
2023-02-24T05:33:21.527Z,94235.28
2023-02-24T05:36:36.446Z,94232.81
2023-02-24T05:39:45.069Z,94228.72
2023-02-24T05:42:53.615Z,94225.13
2023-02-24T05:46:03.794Z,94223.00
2023-02-24T05:49:16.313Z,94223.16
2023-02-24T05:56:08.396Z,94215.94
2023-02-24T05:59:21.360Z,94219.38
2023-02-24T06:02:37.183Z,94214.59
2023-02-24T06:05:45.486Z,94213.94
2023-02-24T06:08:55.332Z,94218.16
2023-02-24T06:12:05.797Z,94212.25
2023-02-24T06:15:14.189Z,94204.34
2023-02-24T06:18:22.368Z,94210.56
2023-02-24T06:21:30.786Z,94207.88
2023-02-24T06:24:39.488Z,94207.84
2023-02-24T06:27:53.412Z,94203.28
2023-02-24T06:31:06.783Z,94209.25
2023-02-24T06:34:15.203Z,94205.19
2023-02-24T06:37:23.753Z,94210.44
2023-02-24T06:40:31.913Z,94214.16
2023-02-24T06:43:44.662Z,94218.31
2023-02-24T06:46:52.782Z,94217.03
2023-02-24T06:50:00.918Z,94217.69
2023-02-24T06:53:16.897Z,94218.13
2023-02-24T06:56:25.275Z,94214.00
2023-02-24T06:59:34.877Z,94216.47
2023-02-24T07:02:43.195Z,94219.66
2023-02-24T07:06:10.923Z,94220.81
2023-02-24T07:09:23.249Z,94221.38
2023-02-24T07:12:31.347Z,94219.13
2023-02-24T07:15:40.910Z,94219.84
2023-02-24T07:18:50.111Z,94215.25
2023-02-24T07:22:02.242Z,94214.00
2023-02-24T07:25:30.397Z,94212.75
2023-02-24T07:28:40.226Z,94206.66
2023-02-24T07:31:54.977Z,94201.75
2023-02-24T07:35:03.502Z,94204.47
2023-02-24T07:38:17.460Z,94198.44
2023-02-24T07:41:28.456Z,94199.16
2023-02-24T07:44:38.996Z,94203.03
2023-02-24T07:47:49.509Z,94195.03
2023-02-24T07:50:59.391Z,94200.59
2023-02-24T07:54:08.869Z,94196.78
2023-02-24T07:57:19.014Z,94193.03
2023-02-24T08:00:28.432Z,94187.88
2023-02-24T08:03:41.466Z,94188.16
2023-02-24T08:06:56.390Z,94176.97
2023-02-24T08:10:14.263Z,94187.00
2023-02-24T08:13:22.690Z,94183.00
2023-02-24T08:16:39.513Z,94183.31
2023-02-24T08:20:17.267Z,94184.22
2023-02-24T08:23:25.734Z,94180.38
2023-02-24T08:26:41.727Z,94169.97
2023-02-24T08:30:02.897Z,94167.53
2023-02-24T08:33:16.081Z,94166.69
2023-02-24T08:36:26.135Z,94163.81
2023-02-24T08:39:36.653Z,94158.50
2023-02-24T08:42:45.019Z,94148.31
2023-02-24T08:45:57.665Z,94148.69
2023-02-24T08:49:10.784Z,94142.94
2023-02-24T08:52:20.558Z,94137.41
2023-02-24T08:55:33.067Z,94138.44
2023-02-24T08:58:47.525Z,94136.41
2023-02-24T09:02:17.605Z,94140.09
2023-02-24T09:05:26.078Z,94138.00
2023-02-24T09:08:39.098Z,94125.91
2023-02-24T09:11:49.386Z,94134.44
2023-02-24T09:15:01.299Z,94126.41
2023-02-24T09:18:14.212Z,94114.50
2023-02-24T09:21:39.847Z,94117.81
2023-02-24T09:25:10.085Z,94105.34
2023-02-24T09:28:24.574Z,94112.03
2023-02-24T09:31:48.117Z,94102.41
2023-02-24T09:34:56.560Z,94100.34
2023-02-24T09:38:06.521Z,94097.84
2023-02-24T09:41:53.864Z,94085.69
2023-02-24T09:45:11.455Z,94091.31
2023-02-24T09:48:32.043Z,94085.69
2023-02-24T09:51:43.493Z,94075.44
2023-02-24T09:55:11.292Z,94078.44
2023-02-24T09:58:43.670Z,94071.44
2023-02-24T10:02:04.016Z,94074.19
2023-02-24T10:05:27.354Z,94067.59
2023-02-24T10:08:42.108Z,94056.22
2023-02-24T10:12:04.316Z,94060.03
2023-02-24T10:15:19.890Z,94053.72
2023-02-24T10:18:33.204Z,94038.84
2023-02-24T10:21:49.897Z,94031.81
2023-02-24T10:25:12.312Z,94028.09
2023-02-24T10:28:36.709Z,94026.69
2023-02-24T10:31:57.788Z,94017.13
2023-02-24T10:35:16.560Z,94018.66
2023-02-24T10:38:28.670Z,94020.88
2023-02-24T10:41:47.968Z,94020.00
2023-02-24T10:45:17.961Z,94019.34
2023-02-24T10:48:43.602Z,94008.91
2023-02-24T10:51:54.617Z,94001.66
2023-02-24T10:55:08.792Z,93989.81
2023-02-24T10:58:37.830Z,93996.56
2023-02-24T11:01:55.099Z,93988.84
2023-02-24T11:05:27.290Z,93979.25
2023-02-24T11:08:40.023Z,93967.84
2023-02-24T11:12:07.359Z,93972.22
2023-02-24T11:15:41.049Z,93953.06
2023-02-24T11:18:52.638Z,93956.81
2023-02-24T11:22:08.772Z,93948.50
2023-02-24T11:25:26.866Z,93940.94
2023-02-24T11:29:06.651Z,93925.69
2023-02-24T11:32:39.272Z,93931.53
2023-02-24T11:36:02.588Z,93922.53
2023-02-24T11:39:49.042Z,93909.16
2023-02-24T11:43:01.884Z,93907.47
2023-02-24T11:46:19.241Z,93896.44
2023-02-24T11:49:35.417Z,93894.88
2023-02-24T11:58:01.420Z,93871.38
2023-02-24T12:01:18.467Z,93871.06
2023-02-24T12:04:33.826Z,93864.56
2023-02-24T12:07:50.327Z,93868.00
2023-02-24T12:11:07.154Z,93855.94
2023-02-24T12:14:27.708Z,93854.97
2023-02-24T12:17:47.226Z,93843.91
2023-02-24T12:21:01.704Z,93847.59
2023-02-24T12:24:14.540Z,93846.47
2023-02-24T12:27:42.370Z,93836.72
2023-02-24T12:31:22.273Z,93834.03
2023-02-24T12:34:53.245Z,93836.22
2023-02-24T12:38:22.484Z,93824.06
2023-02-24T12:41:49.655Z,93820.38
2023-02-24T12:45:12.316Z,93810.25
2023-02-24T12:48:49.102Z,93810.38
2023-02-24T12:52:14.954Z,93808.50
2023-02-24T12:55:34.034Z,93807.53
2023-02-24T12:58:47.224Z,93798.56
2023-02-24T13:02:06.392Z,93793.03
2023-02-24T13:05:25.024Z,93800.94
2023-02-24T13:08:50.362Z,93782.88
2023-02-24T13:12:07.954Z,93786.03
2023-02-24T13:15:25.332Z,93784.63
2023-02-24T13:18:36.975Z,93784.94
2023-02-24T13:22:05.363Z,93787.94
2023-02-24T13:25:23.578Z,93775.47
2023-02-24T13:28:36.459Z,93774.44
2023-02-24T13:31:49.238Z,93761.19
2023-02-24T13:34:59.743Z,93764.81
2023-02-24T13:38:27.919Z,93754.88
2023-02-24T13:41:42.475Z,93759.94
2023-02-24T13:44:55.262Z,93765.16
2023-02-24T13:48:41.112Z,93754.97
2023-02-24T13:52:03.641Z,93748.81
2023-02-24T13:55:52.223Z,93736.47
2023-02-24T13:59:35.053Z,93728.78
2023-02-24T14:02:45.210Z,93726.94
2023-02-24T14:05:55.475Z,93731.75
2023-02-24T14:09:07.603Z,93732.38
2023-02-24T14:12:22.320Z,93733.47
2023-02-24T14:15:31.521Z,93730.88
2023-02-24T14:18:39.799Z,93723.78
2023-02-24T14:21:52.012Z,93730.13
2023-02-24T14:25:04.597Z,93719.50
2023-02-24T14:28:24.574Z,93713.81
2023-02-24T14:31:32.916Z,93714.88
2023-02-24T14:34:41.999Z,93707.28
2023-02-24T14:37:50.292Z,93697.78
2023-02-24T14:40:59.405Z,93701.84
2023-02-24T14:44:22.598Z,93696.88
2023-02-24T14:47:32.594Z,93701.41
2023-02-24T14:50:41.477Z,93706.72
2023-02-24T14:53:55.593Z,93686.34
2023-02-24T14:57:04.911Z,93674.88
2023-02-24T15:00:24.926Z,93672.69
2023-02-24T15:03:39.255Z,93675.72
2023-02-24T15:06:49.069Z,93675.50
2023-02-24T15:09:59.028Z,93677.81
2023-02-24T15:13:18.015Z,93678.59
2023-02-24T15:16:38.397Z,93672.50
2023-02-24T15:19:54.390Z,93667.09
2023-02-24T15:23:03.892Z,93653.78
2023-02-24T15:26:28.115Z,93650.19
2023-02-24T15:29:36.536Z,93655.03
2023-02-24T15:32:46.619Z,93656.31
2023-02-24T15:35:58.991Z,93654.78
2023-02-24T15:39:10.710Z,93650.88
2023-02-24T15:42:28.443Z,93642.72
2023-02-24T15:45:40.209Z,93636.44
2023-02-24T15:48:55.477Z,93627.31
2023-02-24T15:52:05.257Z,93638.06
2023-02-24T15:55:18.142Z,93625.75
2023-02-24T15:58:26.843Z,93618.91
2023-02-24T16:01:35.624Z,93607.94
2023-02-24T16:04:47.198Z,93605.28
2023-02-24T16:07:55.804Z,93605.75
2023-02-24T16:11:04.114Z,93602.75
2023-02-24T16:14:19.240Z,93586.09
2023-02-24T16:17:35.059Z,93579.38
2023-02-24T16:20:48.825Z,93580.56
2023-02-24T16:23:57.369Z,93579.81
2023-02-24T16:27:06.644Z,93585.38
2023-02-24T16:30:22.482Z,93582.16
2023-02-24T16:33:36.715Z,93592.88
2023-02-24T16:36:52.077Z,93600.63
2023-02-24T16:40:00.776Z,93598.28
2023-02-24T16:43:09.739Z,93600.81
2023-02-24T16:46:22.396Z,93598.91
2023-02-24T16:49:31.291Z,93600.91
2023-02-24T16:52:41.770Z,93603.56
2023-02-24T16:55:51.720Z,93596.66
2023-02-24T16:59:00.898Z,93594.22
2023-02-24T17:02:21.790Z,93598.81
2023-02-24T17:05:30.462Z,93602.69
2023-02-24T17:08:41.786Z,93607.47
2023-02-24T17:11:50.395Z,93609.31
2023-02-24T17:14:59.385Z,93604.09
2023-02-24T17:18:08.853Z,93609.63
2023-02-24T17:21:18.476Z,93613.63
2023-02-24T17:24:28.677Z,93617.13
2023-02-24T17:27:37.818Z,93612.97
2023-02-24T17:30:47.223Z,93613.25
2023-02-24T17:33:56.394Z,93617.13
2023-02-24T17:37:05.662Z,93612.91
2023-02-24T17:40:18.672Z,93602.91
2023-02-24T17:43:27.660Z,93606.66
2023-02-24T17:46:36.503Z,93605.25
2023-02-24T17:49:44.942Z,93601.63
2023-02-24T17:52:53.716Z,93592.66
2023-02-24T17:56:08.799Z,93584.53
2023-02-24T17:59:17.439Z,93585.13
2023-02-24T18:02:26.001Z,93590.28
2023-02-24T18:05:34.588Z,93586.66
2023-02-24T18:08:43.278Z,93596.06
2023-02-24T18:11:53.190Z,93576.91
2023-02-24T18:15:08.748Z,93554.88
2023-02-24T18:18:17.968Z,93564.88
2023-02-24T18:21:27.274Z,93541.44
2023-02-24T18:24:35.735Z,93533.09
2023-02-24T18:27:45.408Z,93538.16
2023-02-24T18:30:54.009Z,93532.06
2023-02-24T18:34:02.775Z,93526.75
2023-02-24T18:37:11.109Z,93522.03
2023-02-24T18:40:19.850Z,93518.63
2023-02-24T18:43:30.218Z,93497.34
2023-02-24T18:46:38.816Z,93503.81
2023-02-24T18:49:47.120Z,93499.75
2023-02-24T18:52:55.436Z,93495.81
2023-02-24T18:56:06.692Z,93493.69
2023-02-24T18:59:16.876Z,93498.72
2023-02-24T19:02:25.046Z,93493.34
2023-02-24T19:05:38.378Z,93493.34
2023-02-24T19:08:48.769Z,93493.97
2023-02-24T19:11:57.147Z,93497.63
2023-02-24T19:15:09.272Z,93497.75
2023-02-24T19:18:18.357Z,93494.09
2023-02-24T19:21:29.484Z,93498.97
2023-02-24T19:24:38.022Z,93489.59
2023-02-24T19:27:47.686Z,93500.69
2023-02-24T19:30:57.517Z,93500.28
2023-02-24T19:34:12.147Z,93491.66
2023-02-24T19:37:20.785Z,93496.72
2023-02-24T19:40:29.084Z,93501.38
2023-02-24T19:43:37.640Z,93508.25
2023-02-24T19:46:47.790Z,93534.00
2023-02-24T19:49:55.934Z,93538.75
2023-02-24T19:53:04.823Z,93521.63
2023-02-24T19:56:13.399Z,93503.97
2023-02-24T19:59:21.742Z,93489.84
2023-02-24T20:02:31.743Z,93489.38
2023-02-24T20:05:43.506Z,93486.72
2023-02-24T20:08:53.814Z,93491.88
2023-02-24T20:12:02.439Z,93496.50
2023-02-24T20:15:12.074Z,93506.47
2023-02-24T20:18:21.861Z,93506.00
2023-02-24T20:21:31.602Z,93494.63
2023-02-24T20:24:39.765Z,93497.47
2023-02-24T20:27:48.119Z,93492.34
2023-02-24T20:30:59.229Z,93473.81
2023-02-24T20:34:10.703Z,93484.84
2023-02-24T20:37:19.355Z,93471.00
2023-02-24T20:40:28.700Z,93476.03
2023-02-24T20:43:37.550Z,93479.47
2023-02-24T20:46:46.108Z,93468.97
2023-02-24T20:49:56.162Z,93466.56
2023-02-24T20:53:04.812Z,93472.06
2023-02-24T20:56:22.029Z,93463.31
2023-02-24T20:59:30.422Z,93453.75
2023-02-24T21:02:41.118Z,93454.38
2023-02-24T21:05:58.836Z,93452.75
2023-02-24T21:09:16.312Z,93459.13
2023-02-24T21:12:24.906Z,93451.72
2023-02-24T21:15:33.119Z,93479.72
2023-02-24T21:18:43.873Z,93486.84
2023-02-24T21:21:53.764Z,93484.94
2023-02-24T21:25:02.497Z,93479.72
2023-02-24T21:28:11.398Z,93486.84
2023-02-24T21:31:21.693Z,93481.31
2023-02-24T21:34:30.597Z,93494.81
2023-02-24T21:37:40.974Z,93487.16
2023-02-24T21:40:50.049Z,93477.06
2023-02-24T21:44:00.521Z,93467.34
2023-02-24T21:47:09.549Z,93484.41
2023-02-24T21:50:18.917Z,93471.44
2023-02-24T21:53:29.894Z,93476.72
2023-02-24T21:56:37.997Z,93474.94
2023-02-24T21:59:46.668Z,93467.00
2023-02-24T22:02:56.926Z,93454.84
2023-02-24T22:06:05.975Z,93447.16
2023-02-24T22:09:19.465Z,93458.91
2023-02-24T22:12:27.949Z,93464.97
2023-02-24T22:15:39.661Z,93473.44
2023-02-24T22:18:49.226Z,93483.94
2023-02-24T22:22:00.518Z,93512.09
2023-02-24T22:25:11.861Z,93503.78
2023-02-24T22:28:20.273Z,93484.13
2023-02-24T22:31:31.821Z,93491.59
2023-02-24T22:34:41.495Z,93498.09
2023-02-24T22:37:49.564Z,93494.41
2023-02-24T22:41:00.950Z,93492.94
2023-02-24T22:44:11.060Z,93507.53
2023-02-24T22:47:19.470Z,93498.81
2023-02-24T22:50:27.873Z,93499.91
2023-02-24T22:53:39.506Z,93493.94
2023-02-24T22:56:50.256Z,93489.34
2023-02-24T22:59:58.961Z,93488.53
2023-02-24T23:03:07.114Z,93492.03
2023-02-24T23:06:18.673Z,93504.34
2023-02-24T23:09:28.070Z,93521.16
2023-02-24T23:12:37.999Z,93544.81
2023-02-24T23:15:46.410Z,93558.97
2023-02-24T23:18:58.278Z,93557.28
2023-02-24T23:22:07.988Z,93563.50
2023-02-24T23:25:16.296Z,93562.59
2023-02-24T23:28:28.034Z,93576.69
2023-02-24T23:31:36.554Z,93569.28
2023-02-24T23:34:45.825Z,93573.66
2023-02-24T23:37:53.910Z,93571.84
2023-02-24T23:41:02.615Z,93565.66
2023-02-24T23:44:12.469Z,93591.22
2023-02-24T23:47:20.888Z,93601.00
2023-02-24T23:50:29.296Z,93615.50
2023-02-24T23:53:39.668Z,93609.78
2023-02-24T23:56:48.361Z,93600.66
2023-02-24T23:59:58.900Z,93613.31
